Time;durP1;ratioP1;P1;durP2;ratioP2;P2;SDS_P1;SDS_P2;PMS_P1;PMS_P2;Temp;Humidity;BMP_temperature;BMP_pressure;BME280_temperature;BME280_humidity;BME280_pressure;Samples;Min_cycle;Max_cycle;Signal;HPM_P1;HPM_P2
2024/01/13 00:01:24;;;;;;;11.50;8.90;;;;;;;18.50;40.18;101987.16;5026930;28;20109;-63
2024/01/13 00:03:52;;;;;;;9.80;8.60;;;;;;;18.50;40.11;101992.53;5030193;28;20404;-63
2024/01/13 00:06:19;;;;;;;11.80;9.02;;;;;;;18.49;40.12;101997.03;5039159;28;20049;-63
2024/01/13 00:08:48;;;;;;;10.80;9.25;;;;;;;18.49;40.00;101990.81;5030606;28;20075;-63
2024/01/13 00:11:16;;;;;;;10.43;9.32;;;;;;;18.49;40.04;101990.81;5027321;28;20042;-63
2024/01/13 00:13:43;;;;;;;11.55;9.57;;;;;;;18.48;39.97;101983.75;5034316;28;20045;-63
2024/01/13 00:16:11;;;;;;;10.75;8.48;;;;;;;18.49;39.85;101988.13;5031687;28;20542;-63
2024/01/13 00:18:38;;;;;;;11.20;8.52;;;;;;;18.48;39.71;101987.28;5034664;28;20056;-63
2024/01/13 00:21:10;;;;;;;10.60;8.90;;;;;;;18.46;39.62;101983.81;5032454;28;20476;-63
2024/01/13 00:23:38;;;;;;;10.25;8.82;;;;;;;18.47;39.60;101982.00;5026842;28;20136;-61
2024/01/13 00:26:06;;;;;;;10.20;8.98;;;;;;;18.47;39.58;101990.03;5034863;28;20396;-60
2024/01/13 00:28:34;;;;;;;10.88;8.80;;;;;;;18.46;39.60;101977.59;5034515;28;20522;-60
2024/01/13 00:31:04;;;;;;;13.07;9.25;;;;;;;18.44;39.55;101966.97;5031125;28;20054;-60
2024/01/13 00:33:33;;;;;;;10.48;8.40;;;;;;;18.44;39.37;101964.31;5037112;28;20045;-60
2024/01/13 00:36:01;;;;;;;9.32;8.27;;;;;;;18.44;39.44;101969.66;5034746;28;20068;-61
2024/01/13 00:38:29;;;;;;;9.63;8.60;;;;;;;18.42;39.33;101965.34;5033017;28;20045;-61
2024/01/13 00:41:04;;;;;;;11.13;9.10;;;;;;;18.42;39.53;101965.34;5033476;28;20408;-61
2024/01/13 00:43:34;;;;;;;9.15;8.15;;;;;;;18.41;39.38;101956.44;5035480;28;20052;-60
2024/01/13 00:46:02;;;;;;;9.23;7.82;;;;;;;18.39;39.19;101954.81;5034441;28;20045;-61
2024/01/13 00:48:30;;;;;;;9.90;8.90;;;;;;;18.40;39.19;101956.56;5031386;28;20411;-61
2024/01/13 00:51:11;;;;;;;9.88;8.88;;;;;;;18.39;39.23;101954.81;5041035;28;20052;-61
2024/01/13 00:53:41;;;;;;;9.93;8.77;;;;;;;18.37;39.25;101952.25;5034668;28;20421;-61
2024/01/13 00:56:09;;;;;;;10.75;8.93;;;;;;;18.37;39.19;101954.91;5033027;28;20064;-60
2024/01/13 00:58:38;;;;;;;10.35;8.75;;;;;;;18.37;39.03;101948.69;5031152;28;20404;-61
2024/01/13 01:01:12;;;;;;;9.68;8.18;;;;;;;18.36;39.09;101949.66;5036241;28;20059;-61
2024/01/13 01:03:43;;;;;;;9.43;8.43;;;;;;;18.35;39.01;101956.84;5034127;28;20411;-61
2024/01/13 01:06:10;;;;;;;9.43;8.13;;;;;;;18.34;39.05;101963.16;5031164;28;20071;-61
2024/01/13 01:08:38;;;;;;;10.18;8.98;;;;;;;18.34;38.96;101967.66;5034969;28;20061;-61
2024/01/13 01:11:08;;;;;;;9.75;8.68;;;;;;;18.33;39.06;101961.44;5035212;28;20049;-61
2024/01/13 01:13:37;;;;;;;9.50;8.50;;;;;;;18.34;38.92;101962.28;5033829;28;20045;-61
2024/01/13 01:16:05;;;;;;;10.20;8.55;;;;;;;18.33;39.09;101961.44;5031221;28;20369;-63
2024/01/13 01:18:33;;;;;;;8.38;7.32;;;;;;;18.32;39.05;101964.22;5035789;28;20073;-62
2024/01/13 01:21:15;;;;;;;9.95;7.70;;;;;;;18.31;38.85;101963.38;5026987;28;20062;-63
2024/01/13 01:23:46;;;;;;;7.80;6.97;;;;;;;18.31;38.92;101959.81;5019985;28;20048;-63
2024/01/13 01:26:15;;;;;;;10.40;8.05;;;;;;;18.31;38.79;101968.75;5032950;28;20049;-63
2024/01/13 01:28:43;;;;;;;11.13;8.70;;;;;;;18.29;38.92;101958.09;5035403;28;20049;-62
2024/01/13 01:31:10;;;;;;;8.57;7.65;;;;;;;18.29;39.04;101963.44;5033786;28;20061;-62
2024/01/13 01:33:38;;;;;;;8.98;8.07;;;;;;;18.28;38.97;101953.69;5032435;28;20056;-62
2024/01/13 01:36:07;;;;;;;8.95;7.25;;;;;;;18.28;39.02;101961.75;5033487;28;20480;-62
2024/01/13 01:38:36;;;;;;;9.20;7.50;;;;;;;18.28;39.02;101958.19;5035649;28;20045;-62
2024/01/13 01:41:14;;;;;;;8.68;7.25;;;;;;;18.27;38.95;101951.09;5034470;28;20504;-63
2024/01/13 01:43:43;;;;;;;9.25;7.75;;;;;;;18.26;39.02;101946.69;5030180;28;20054;-62
2024/01/13 01:46:17;;;;;;;9.18;7.90;;;;;;;18.26;39.03;101949.38;5037756;28;20372;-61
2024/01/13 01:48:45;;;;;;;9.90;7.78;;;;;;;18.25;38.97;101947.66;5033933;28;20053;-62
2024/01/13 01:51:15;;;;;;;8.95;7.80;;;;;;;18.24;39.07;101949.50;5033021;28;20057;-61
2024/01/13 01:53:45;;;;;;;9.70;7.55;;;;;;;18.24;38.95;101944.13;5031449;28;20069;-61
2024/01/13 01:56:16;;;;;;;8.20;7.32;;;;;;;18.24;39.03;101948.63;5037166;28;20048;-61
2024/01/13 01:58:46;;;;;;;9.15;7.82;;;;;;;18.24;39.15;101949.50;5031860;28;20152;-61
2024/01/13 02:01:16;;;;;;;9.50;7.80;;;;;;;18.23;39.15;101945.09;5029611;28;20044;-61
2024/01/13 02:03:44;;;;;;;8.23;7.13;;;;;;;18.24;39.19;101954.00;5034146;28;20049;-61
2024/01/13 02:06:11;;;;;;;8.73;7.82;;;;;;;18.23;39.27;101950.44;5033793;28;20403;-62
2024/01/13 02:08:40;;;;;;;8.05;7.07;;;;;;;18.22;39.05;101948.72;5033184;28;20050;-61
2024/01/13 02:11:10;;;;;;;8.27;7.28;;;;;;;18.22;39.21;101943.34;5030675;28;20464;-62
2024/01/13 02:13:39;;;;;;;8.23;7.10;;;;;;;18.20;39.19;101945.28;5035187;28;20053;-61
2024/01/13 02:16:08;;;;;;;8.23;7.43;;;;;;;18.20;39.14;101934.56;5032913;28;20403;-61
2024/01/13 02:18:36;;;;;;;8.35;7.25;;;;;;;18.21;39.17;101932.72;5032758;28;20861;-61
2024/01/13 02:21:09;;;;;;;9.27;7.22;;;;;;;18.20;39.10;101928.34;5029326;28;20053;-62
2024/01/13 02:23:38;;;;;;;9.88;8.00;;;;;;;18.19;39.12;101932.84;5034990;28;20057;-62
2024/01/13 02:26:07;;;;;;;7.40;6.68;;;;;;;18.19;39.17;101942.69;5024901;28;20038;-62
2024/01/13 02:28:34;;;;;;;8.23;6.82;;;;;;;18.18;39.29;101944.50;5033293;28;20041;-62
2024/01/13 02:31:15;;;;;;;7.85;6.90;;;;;;;18.19;39.34;101943.56;5033148;28;20065;-62
2024/01/13 02:33:47;;;;;;;7.63;6.35;;;;;;;18.19;39.38;101931.97;5033570;28;20052;-62
2024/01/13 02:36:16;;;;;;;8.63;7.22;;;;;;;18.18;39.21;101932.94;5032286;28;20168;-62
2024/01/13 02:38:43;;;;;;;8.00;7.05;;;;;;;18.17;39.36;101934.75;5030171;28;20050;-62
2024/01/13 02:41:11;;;;;;;8.05;6.68;;;;;;;18.16;39.32;101933.03;5035926;28;20053;-62
2024/01/13 02:43:38;;;;;;;7.93;6.88;;;;;;;18.16;39.49;101922.31;5033183;28;20055;-63
2024/01/13 02:46:06;;;;;;;8.80;7.32;;;;;;;18.15;39.52;101917.91;5032915;28;20056;-61
2024/01/13 02:48:42;;;;;;;8.60;6.95;;;;;;;18.16;39.36;101921.47;5030445;28;20049;-61
2024/01/13 02:51:16;;;;;;;9.80;7.78;;;;;;;18.15;39.42;101923.28;5039018;28;20061;-60
2024/01/13 02:53:45;;;;;;;7.20;6.50;;;;;;;18.15;39.46;101911.66;5032798;28;20045;-60
2024/01/13 02:56:13;;;;;;;8.45;6.72;;;;;;;18.14;39.46;101908.13;5031687;28;20403;-60
2024/01/13 02:58:41;;;;;;;7.40;6.10;;;;;;;18.14;39.46;101910.81;5030780;28;20488;-60
2024/01/13 03:01:13;;;;;;;7.85;6.93;;;;;;;18.15;39.53;101914.34;5042035;28;20045;-62
2024/01/13 03:03:43;;;;;;;8.02;6.22;;;;;;;18.14;39.48;101910.81;5033118;28;20391;-61
2024/01/13 03:06:11;;;;;;;7.15;6.10;;;;;;;18.15;39.38;101915.25;5030392;28;20041;-62
2024/01/13 03:08:39;;;;;;;7.28;5.80;;;;;;;18.15;39.45;101914.34;5034258;28;20480;-62
2024/01/13 03:11:13;;;;;;;6.95;5.90;;;;;;;18.15;39.37;101903.63;5032996;28;20404;-63
2024/01/13 03:13:43;;;;;;;7.03;6.32;;;;;;;18.13;39.31;101906.41;5032982;28;20056;-62
2024/01/13 03:16:12;;;;;;;7.95;6.68;;;;;;;18.13;39.32;101909.09;5029455;28;20420;-63
2024/01/13 03:18:40;;;;;;;8.27;6.05;;;;;;;18.13;39.28;101909.09;5037953;28;20491;-62
2024/01/13 03:21:10;;;;;;;7.43;6.55;;;;;;;18.12;39.28;101909.22;5032347;28;20049;-62
2024/01/13 03:23:41;;;;;;;7.32;6.30;;;;;;;18.12;39.47;101909.22;5039173;28;20053;-62
2024/01/13 03:26:09;;;;;;;8.07;6.15;;;;;;;18.11;39.40;101904.78;5019324;28;20050;-62
2024/01/13 03:28:37;;;;;;;7.28;6.25;;;;;;;18.10;39.47;101901.25;5035094;28;20040;-62
2024/01/13 03:31:09;;;;;;;7.55;6.47;;;;;;;18.09;39.40;101904.91;5032845;28;20053;-61
2024/01/13 03:33:39;;;;;;;7.30;5.75;;;;;;;18.07;39.38;101904.16;5031462;28;20050;-61
2024/01/13 03:36:08;;;;;;;7.68;6.45;;;;;;;18.06;39.37;101889.00;5032623;28;20072;-61
2024/01/13 03:38:37;;;;;;;6.55;5.28;;;;;;;18.06;39.48;101899.72;5033786;28;20053;-61
2024/01/13 03:41:18;;;;;;;6.68;5.97;;;;;;;18.04;39.51;101907.88;5033090;28;20349;-62
2024/01/13 03:43:46;;;;;;;7.32;5.88;;;;;;;18.03;39.41;101905.31;5028906;28;20046;-62
2024/01/13 03:46:14;;;;;;;7.38;5.72;;;;;;;18.02;39.35;101908.91;5035208;28;20071;-63
2024/01/13 03:48:42;;;;;;;6.55;5.57;;;;;;;18.00;39.28;101906.34;5032664;28;20046;-62
2024/01/13 03:51:10;;;;;;;7.05;5.75;;;;;;;18.00;39.34;101900.13;5034580;28;20049;-62
2024/01/13 03:53:38;;;;;;;7.65;6.00;;;;;;;18.01;39.34;101899.16;5039513;28;20054;-61
2024/01/13 03:56:08;;;;;;;7.93;6.00;;;;;;;18.01;39.20;101902.69;5041295;28;20040;-61
2024/01/13 03:58:36;;;;;;;7.18;5.85;;;;;;;18.01;39.22;101897.34;5031857;28;20045;-61
2024/01/13 04:01:04;;;;;;;7.07;5.95;;;;;;;18.03;39.34;101894.59;5038358;28;20061;-61
2024/01/13 04:03:33;;;;;;;6.80;5.68;;;;;;;18.01;39.28;101889.31;5036842;28;20046;-62
2024/01/13 04:06:02;;;;;;;7.13;5.43;;;;;;;18.01;39.17;101899.16;5040634;28;20048;-61
2024/01/13 04:08:32;;;;;;;6.22;5.53;;;;;;;18.01;39.33;101893.81;5038644;28;20049;-61
2024/01/13 04:11:04;;;;;;;6.63;5.15;;;;;;;18.02;39.29;101898.19;5037495;28;20045;-61
2024/01/13 04:13:32;;;;;;;6.80;5.57;;;;;;;18.01;39.23;101896.47;5039151;28;20060;-61
2024/01/13 04:15:59;;;;;;;6.45;5.55;;;;;;;18.01;39.16;101893.81;5039349;28;20054;-62
2024/01/13 04:18:26;;;;;;;5.82;5.20;;;;;;;18.00;39.23;101895.63;5038723;28;20101;-62
2024/01/13 04:20:54;;;;;;;7.43;5.90;;;;;;;17.99;39.18;101893.06;5036395;28;20404;-61
2024/01/13 04:23:38;;;;;;;6.78;5.65;;;;;;;17.98;39.16;101897.53;5044210;28;20041;-61
2024/01/13 04:26:06;;;;;;;6.93;5.90;;;;;;;17.99;39.16;101899.28;5032352;28;20049;-61
2024/01/13 04:28:34;;;;;;;6.13;5.47;;;;;;;17.98;39.19;101883.28;5034983;28;20053;-62
2024/01/13 04:31:02;;;;;;;6.35;5.53;;;;;;;17.98;39.08;101880.59;5036992;28;20065;-62
2024/01/13 04:33:29;;;;;;;5.90;5.22;;;;;;;17.98;39.14;101883.28;5041354;28;20068;-62
2024/01/13 04:35:57;;;;;;;6.18;5.20;;;;;;;17.97;39.17;101885.09;5039386;28;20053;-62
2024/01/13 04:38:27;;;;;;;6.63;5.25;;;;;;;17.97;39.19;101884.25;5038580;28;20388;-61
2024/01/13 04:40:55;;;;;;;6.25;5.35;;;;;;;17.98;39.16;101888.63;5037436;28;20416;-61
2024/01/13 04:43:23;;;;;;;6.30;5.10;;;;;;;17.96;39.14;101888.75;5041323;28;20056;-61
2024/01/13 04:45:50;;;;;;;6.68;5.07;;;;;;;17.95;39.26;101875.47;5038795;28;20064;-61
2024/01/13 04:48:18;;;;;;;6.95;5.28;;;;;;;17.95;39.13;101887.03;5038087;28;20450;-61
2024/01/13 04:50:45;;;;;;;6.60;5.03;;;;;;;17.94;39.28;101876.38;5037575;28;20050;-61
2024/01/13 04:53:13;;;;;;;6.93;5.53;;;;;;;17.93;39.25;101883.56;5040891;28;20418;-61
2024/01/13 04:55:41;;;;;;;7.28;5.55;;;;;;;17.92;39.22;101883.69;5037559;28;20049;-61
2024/01/13 04:58:08;;;;;;;5.70;4.70;;;;;;;17.91;39.18;101880.13;5038061;28;20498;-61
2024/01/13 05:00:36;;;;;;;6.95;5.32;;;;;;;17.90;39.27;101889.09;5040986;28;20054;-62
2024/01/13 05:03:04;;;;;;;5.90;5.22;;;;;;;17.90;39.13;101883.75;5036885;28;20052;-61
2024/01/13 05:05:31;;;;;;;5.57;4.72;;;;;;;17.91;39.25;101895.34;5035766;28;20397;-62
2024/01/13 05:07:59;;;;;;;6.13;5.38;;;;;;;17.89;39.22;101891.91;5034838;28;20411;-61
2024/01/13 05:10:26;;;;;;;5.60;5.07;;;;;;;17.89;39.12;101898.13;5034123;28;20095;-61
2024/01/13 05:12:53;;;;;;;5.85;5.20;;;;;;;17.88;39.06;101898.22;5037965;28;20051;-61
2024/01/13 05:15:21;;;;;;;7.63;6.20;;;;;;;17.88;39.21;101900.91;5035460;28;20068;-61
2024/01/13 05:17:49;;;;;;;6.30;5.07;;;;;;;17.86;39.17;101900.97;5034629;28;20045;-61
2024/01/13 05:20:16;;;;;;;6.75;5.28;;;;;;;17.85;39.03;101895.72;5034373;28;20492;-62
2024/01/13 05:22:44;;;;;;;6.70;5.05;;;;;;;17.84;39.14;101900.22;5036952;28;20049;-61
2024/01/13 05:25:14;;;;;;;6.38;5.25;;;;;;;17.85;39.12;101903.75;5035371;28;20100;-61
2024/01/13 05:27:42;;;;;;;7.18;5.03;;;;;;;17.84;39.12;101900.22;5025446;28;20045;-61
2024/01/13 05:30:10;;;;;;;7.00;4.95;;;;;;;17.84;39.15;101904.72;5035554;28;20058;-61
2024/01/13 05:32:39;;;;;;;5.63;4.65;;;;;;;17.85;39.00;101903.75;5037355;28;20495;-61
2024/01/13 05:35:08;;;;;;;5.28;4.18;;;;;;;17.84;39.04;101900.22;5035331;28;20048;-61
2024/01/13 05:37:36;;;;;;;7.88;5.55;;;;;;;17.85;39.07;101901.09;5034362;28;20052;-61
2024/01/13 05:40:05;;;;;;;6.70;5.63;;;;;;;17.85;39.16;101891.22;5036333;28;20101;-62
2024/01/13 05:42:33;;;;;;;6.97;4.78;;;;;;;17.85;39.16;101898.41;5036190;28;20049;-61
2024/01/13 05:45:00;;;;;;;6.60;4.68;;;;;;;17.83;39.30;101898.50;5035071;28;20415;-62
2024/01/13 05:47:28;;;;;;;5.90;4.85;;;;;;;17.83;39.32;101892.31;5034111;28;20068;-62
2024/01/13 05:49:55;;;;;;;5.43;4.68;;;;;;;17.85;39.14;101893.06;5043577;28;20046;-62
2024/01/13 05:52:23;;;;;;;6.28;4.65;;;;;;;17.85;39.24;101885.00;5035562;28;20053;-61
2024/01/13 05:54:50;;;;;;;7.07;5.00;;;;;;;17.86;39.14;101894.75;5034796;28;20415;-62
2024/01/13 05:57:17;;;;;;;6.10;4.50;;;;;;;17.86;39.20;101894.75;5034380;28;20045;-61
2024/01/13 05:59:45;;;;;;;6.35;4.70;;;;;;;17.86;39.24;101900.13;5033977;28;20056;-62
2024/01/13 06:02:13;;;;;;;5.72;4.68;;;;;;;17.85;39.27;101907.31;5035326;28;20050;-62
2024/01/13 06:04:40;;;;;;;5.95;4.38;;;;;;;17.84;39.46;101907.41;5034749;28;20049;-62
2024/01/13 06:07:08;;;;;;;5.55;4.68;;;;;;;17.85;39.37;101901.09;5031997;28;20054;-62
2024/01/13 06:09:39;;;;;;;5.93;4.97;;;;;;;17.84;39.40;101902.91;5035665;28;20089;-62
2024/01/13 06:12:07;;;;;;;5.13;4.00;;;;;;;17.83;39.35;101901.19;5034549;28;20407;-62
2024/01/13 06:14:35;;;;;;;5.82;4.30;;;;;;;17.82;39.53;101899.44;5033720;28;20053;-62
2024/01/13 06:17:02;;;;;;;6.18;4.68;;;;;;;17.82;39.42;101898.59;5032573;28;20049;-63
2024/01/13 06:19:30;;;;;;;7.90;4.93;;;;;;;17.82;39.62;101895.91;5036503;28;20037;-62
2024/01/13 06:21:57;;;;;;;6.95;4.20;;;;;;;17.81;39.42;101895.06;5034353;28;20065;-62
2024/01/13 06:24:24;;;;;;;5.45;4.20;;;;;;;17.82;39.45;101895.91;5034840;28;20049;-62
2024/01/13 06:26:52;;;;;;;5.65;3.85;;;;;;;17.81;39.53;101891.53;5032113;28;20049;-62
2024/01/13 06:29:19;;;;;;;5.63;4.07;;;;;;;17.79;39.39;101897.00;5027798;28;20063;-62
2024/01/13 06:31:46;;;;;;;5.50;3.65;;;;;;;17.80;39.50;101901.38;5035027;28;20057;-62
2024/01/13 06:34:14;;;;;;;5.25;4.65;;;;;;;17.79;39.46;101903.19;5034128;28;20046;-61
2024/01/13 06:36:41;;;;;;;5.43;4.00;;;;;;;17.79;39.34;101897.00;5032587;28;20056;-61
2024/01/13 06:39:09;;;;;;;5.97;4.25;;;;;;;17.78;39.50;101893.44;5037752;28;20052;-62
2024/01/13 06:41:37;;;;;;;6.18;3.67;;;;;;;17.77;39.45;101894.38;5034533;28;20498;-61
2024/01/13 06:44:05;;;;;;;4.65;3.97;;;;;;;17.77;39.37;101891.72;5034412;28;20053;-62
2024/01/13 06:46:34;;;;;;;4.85;4.18;;;;;;;17.76;39.34;101897.16;5032697;28;20046;-61
2024/01/13 06:49:01;;;;;;;6.53;4.70;;;;;;;17.76;39.43;101899.84;5036877;28;20064;-61
2024/01/13 06:51:29;;;;;;;5.53;4.35;;;;;;;17.74;39.23;101899.97;5022784;28;20045;-61
2024/01/13 06:53:56;;;;;;;4.63;3.83;;;;;;;17.74;39.27;101897.28;5032895;28;20061;-62
2024/01/13 06:56:24;;;;;;;6.72;4.65;;;;;;;17.73;39.36;101892.81;5032375;28;20419;-62
2024/01/13 06:58:51;;;;;;;6.00;3.90;;;;;;;17.72;39.21;101896.47;5034355;28;20056;-62
2024/01/13 07:01:19;;;;;;;6.55;4.50;;;;;;;17.72;39.31;101904.50;5040682;28;20049;-62
2024/01/13 07:03:46;;;;;;;9.27;4.47;;;;;;;17.71;39.27;101900.09;5040189;28;20045;-62
2024/01/13 07:06:14;;;;;;;4.15;3.33;;;;;;;17.72;39.34;101898.28;5031128;28;20411;-62
2024/01/13 07:08:43;;;;;;;6.10;3.88;;;;;;;17.70;39.26;101898.38;5036686;28;20049;-62
2024/01/13 07:11:12;;;;;;;5.70;3.70;;;;;;;17.71;39.27;101905.47;5024166;28;20049;-62
2024/01/13 07:13:43;;;;;;;4.90;3.78;;;;;;;17.70;39.42;101898.38;5033635;28;20045;-62
2024/01/13 07:16:11;;;;;;;6.07;4.55;;;;;;;17.71;39.27;101894.75;5030580;28;20046;-62
2024/01/13 07:18:38;;;;;;;7.07;4.15;;;;;;;17.71;39.33;101899.25;5036440;28;20410;-63
2024/01/13 07:21:06;;;;;;;5.38;4.10;;;;;;;17.71;39.38;101905.47;5033271;28;20053;-61
2024/01/13 07:23:34;;;;;;;4.95;3.97;;;;;;;17.70;39.28;101897.50;5032081;28;20053;-61
2024/01/13 07:26:01;;;;;;;4.55;3.72;;;;;;;17.69;39.34;101907.34;5037433;28;20050;-61
2024/01/13 07:28:29;;;;;;;5.43;3.95;;;;;;;17.70;39.26;101911.78;5030631;28;20125;-62
2024/01/13 07:30:57;;;;;;;5.00;4.45;;;;;;;17.69;39.26;101907.34;5026005;28;20053;-62
2024/01/13 07:33:24;;;;;;;5.20;3.85;;;;;;;17.70;39.36;101914.47;5034087;28;20049;-62
2024/01/13 07:35:52;;;;;;;4.57;3.47;;;;;;;17.69;39.34;101912.72;5032421;28;20049;-61
2024/01/13 07:38:20;;;;;;;5.88;4.60;;;;;;;17.67;39.34;101909.28;5036762;28;20041;-61
2024/01/13 07:40:47;;;;;;;4.95;3.80;;;;;;;17.68;39.32;101913.69;5034112;28;20412;-62
2024/01/13 07:43:15;;;;;;;4.93;3.70;;;;;;;17.67;39.41;101906.59;5032686;28;20052;-62
2024/01/13 07:45:42;;;;;;;4.97;3.70;;;;;;;17.67;39.34;101898.56;5032346;28;20411;-62
2024/01/13 07:48:09;;;;;;;4.72;3.72;;;;;;;17.68;39.25;101907.47;5037335;28;20052;-62
2024/01/13 07:50:37;;;;;;;6.18;3.88;;;;;;;17.67;39.24;101909.28;5034045;28;20053;-61
2024/01/13 07:53:05;;;;;;;4.80;3.67;;;;;;;17.68;39.39;101904.78;5033852;28;20534;-61
2024/01/13 07:55:32;;;;;;;5.40;4.00;;;;;;;17.67;39.38;101909.28;5031899;28;20057;-61
2024/01/13 07:57:59;;;;;;;4.97;3.80;;;;;;;17.67;39.40;101903.06;5036256;28;20468;-61
2024/01/13 08:00:27;;;;;;;4.65;3.50;;;;;;;17.67;39.33;101898.56;5028296;28;20038;-61
2024/01/13 08:02:55;;;;;;;5.85;4.40;;;;;;;17.66;39.40;101896.84;5034123;28;20058;-63
2024/01/13 08:05:22;;;;;;;4.90;3.88;;;;;;;17.65;39.33;101892.44;5031455;28;20045;-61
2024/01/13 08:07:49;;;;;;;4.72;3.83;;;;;;;17.66;39.36;101896.84;5036105;28;20372;-61
2024/01/13 08:10:17;;;;;;;5.57;3.95;;;;;;;17.66;39.37;101901.31;5033643;28;20057;-61
2024/01/13 08:12:46;;;;;;;4.78;3.75;;;;;;;17.66;39.28;101902.22;5033522;28;20506;-61
2024/01/13 08:15:14;;;;;;;4.05;3.50;;;;;;;17.65;39.30;101895.13;5031696;28;20054;-62
2024/01/13 08:17:41;;;;;;;5.32;3.97;;;;;;;17.65;39.23;101899.63;5035930;28;20052;-62
2024/01/13 08:20:09;;;;;;;4.35;3.40;;;;;;;17.64;39.34;101892.53;5033038;28;20100;-62
2024/01/13 08:22:37;;;;;;;5.20;4.07;;;;;;;17.64;39.08;101898.75;5033535;28;20045;-62
2024/01/13 08:25:06;;;;;;;4.18;3.15;;;;;;;17.63;39.33;101897.03;5031366;28;20072;-62
2024/01/13 08:27:34;;;;;;;5.28;3.83;;;;;;;17.63;39.33;101891.69;5035684;28;20045;-62
2024/01/13 08:30:01;;;;;;;5.72;4.10;;;;;;;17.64;39.47;101895.22;5021076;28;20065;-62
2024/01/13 08:32:29;;;;;;;5.35;4.10;;;;;;;17.63;39.33;101897.03;5028303;28;20432;-62
2024/01/13 08:34:57;;;;;;;4.93;3.55;;;;;;;17.63;39.48;101891.69;5032759;28;20420;-63
2024/01/13 08:37:25;;;;;;;4.63;3.65;;;;;;;17.64;39.48;101888.03;5036510;28;20053;-61
2024/01/13 08:39:53;;;;;;;5.97;4.43;;;;;;;17.64;39.41;101893.41;5035818;28;20049;-61
2024/01/13 08:42:21;;;;;;;5.28;3.50;;;;;;;17.65;39.55;101900.47;5037256;28;20068;-61
2024/01/13 08:44:49;;;;;;;6.03;3.92;;;;;;;17.64;39.42;101893.41;5036095;28;20413;-62
2024/01/13 08:47:17;;;;;;;5.03;3.67;;;;;;;17.66;39.44;101895.97;5038644;28;20052;-61
2024/01/13 08:49:44;;;;;;;5.55;3.80;;;;;;;17.66;39.45;101891.50;5037252;28;20041;-61
2024/01/13 08:52:12;;;;;;;5.22;3.85;;;;;;;17.67;39.52;101903.06;5036895;28;20068;-61
2024/01/13 08:54:39;;;;;;;5.18;3.80;;;;;;;17.65;39.49;101891.56;5035975;28;20507;-61
2024/01/13 08:57:07;;;;;;;6.07;3.67;;;;;;;17.65;39.47;101884.41;5038878;28;20055;-61
2024/01/13 08:59:37;;;;;;;5.43;3.47;;;;;;;17.65;39.58;101887.09;5040368;28;20049;-61
2024/01/13 09:02:06;;;;;;;5.47;3.88;;;;;;;17.65;39.57;101883.53;5039230;28;20053;-61
2024/01/13 09:04:34;;;;;;;4.70;3.67;;;;;;;17.65;39.65;101884.41;5037293;28;20048;-61
2024/01/13 09:07:02;;;;;;;5.60;3.72;;;;;;;17.67;39.63;101881.66;5037862;28;20045;-61
2024/01/13 09:09:29;;;;;;;5.90;3.67;;;;;;;17.67;39.73;101882.50;5036763;28;20045;-62
2024/01/13 09:11:57;;;;;;;4.97;3.50;;;;;;;17.66;39.71;101878.13;5038019;28;20053;-61
2024/01/13 09:14:24;;;;;;;5.45;3.80;;;;;;;17.67;39.70;101873.63;5036956;28;20046;-61
2024/01/13 09:16:52;;;;;;;6.80;3.97;;;;;;;17.68;39.73;101867.28;5040004;28;20060;-61
2024/01/13 09:19:19;;;;;;;4.57;3.05;;;;;;;17.69;39.81;101871.69;5037084;28;20053;-65
2024/01/13 09:21:47;;;;;;;4.70;3.50;;;;;;;17.70;39.95;101876.97;5036586;28;20503;-63
2024/01/13 09:24:17;;;;;;;4.80;3.33;;;;;;;17.71;40.18;101875.16;5036577;28;20049;-61
2024/01/13 09:26:46;;;;;;;4.78;3.60;;;;;;;17.71;40.15;101873.31;5047357;28;20045;-60
2024/01/13 09:29:17;;;;;;;6.20;4.15;;;;;;;17.72;40.27;101871.50;5036513;28;20056;-61
2024/01/13 09:31:49;;;;;;;5.60;3.03;;;;;;;17.73;40.29;101865.19;5017808;28;20045;-60
2024/01/13 09:34:19;;;;;;;6.30;4.40;;;;;;;17.71;40.16;101869.78;5045729;28;20053;-60
2024/01/13 09:36:47;;;;;;;6.47;3.78;;;;;;;17.71;39.82;101864.44;5039262;28;20045;-60
2024/01/13 09:39:20;;;;;;;4.72;3.58;;;;;;;17.71;40.03;101862.63;5042599;28;20061;-60
2024/01/13 09:41:49;;;;;;;4.65;3.63;;;;;;;17.71;40.12;101859.94;5037036;28;20041;-60
2024/01/13 09:44:22;;;;;;;5.25;3.83;;;;;;;17.71;40.19;101857.25;5038757;28;20395;-60
2024/01/13 09:46:54;;;;;;;6.85;4.00;;;;;;;17.70;40.30;101863.56;5036925;28;20049;-60
2024/01/13 09:49:25;;;;;;;4.47;3.42;;;;;;;17.73;40.09;101862.50;5036581;28;20061;-60
2024/01/13 09:51:54;;;;;;;10.77;9.50;;;;;;;17.69;39.38;101864.50;5038321;28;20049;-60
2024/01/13 09:54:25;;;;;;;10.50;7.85;;;;;;;17.68;39.09;101868.16;5036171;28;20056;-60
2024/01/13 09:56:55;;;;;;;8.70;5.32;;;;;;;17.70;39.38;101860.91;5036729;28;20057;-60
2024/01/13 09:59:28;;;;;;;7.05;5.00;;;;;;;17.73;39.54;101857.16;5034939;28;20041;-62
2024/01/13 10:02:00;;;;;;;7.85;4.97;;;;;;;17.73;39.65;101858.00;5045724;28;20049;-61
2024/01/13 10:04:28;;;;;;;7.75;5.45;;;;;;;17.75;39.96;101863.31;5037069;28;20050;-61
2024/01/13 10:06:55;;;;;;;7.60;5.20;;;;;;;17.76;39.98;101859.66;5036276;28;20041;-60
2024/01/13 10:09:23;;;;;;;7.20;4.88;;;;;;;17.77;40.04;101848.00;5035712;28;20061;-60
2024/01/13 10:12:05;;;;;;;7.38;5.43;;;;;;;17.78;39.94;101842.56;5036661;28;20053;-60
2024/01/13 10:14:36;;;;;;;8.25;5.53;;;;;;;17.79;39.92;101841.59;5035884;28;20050;-59
2024/01/13 10:17:04;;;;;;;8.48;6.53;;;;;;;17.81;40.02;101840.63;5034777;28;20064;-60
2024/01/13 10:19:41;;;;;;;7.93;6.15;;;;;;;17.80;40.09;101829.06;5045519;28;20049;-62
2024/01/13 10:22:10;;;;;;;7.93;6.50;;;;;;;17.81;39.87;101819.19;5041825;28;20045;-61
2024/01/13 10:24:37;;;;;;;8.43;6.70;;;;;;;17.80;39.77;101813.00;5039648;28;20484;-60
2024/01/13 10:27:05;;;;;;;9.77;6.88;;;;;;;17.81;39.71;101808.50;5033263;28;20088;-60
2024/01/13 10:29:35;;;;;;;8.35;6.28;;;;;;;17.82;39.87;101813.72;5045526;28;20056;-62
2024/01/13 10:32:03;;;;;;;7.53;6.22;;;;;;;17.84;39.84;101813.66;5023153;28;20156;-61
2024/01/13 10:34:31;;;;;;;9.15;6.75;;;;;;;17.82;39.88;101805.69;5031902;28;20046;-62
2024/01/13 10:37:09;;;;;;;7.53;5.72;;;;;;;17.82;39.87;101805.69;5034588;28;20049;-60
2024/01/13 10:39:38;;;;;;;7.55;6.03;;;;;;;17.84;40.01;101800.25;5035648;28;20038;-61
2024/01/13 10:42:09;;;;;;;8.77;6.30;;;;;;;17.84;40.05;101802.94;5036053;28;20048;-60
2024/01/13 10:44:46;;;;;;;8.20;5.88;;;;;;;17.83;39.96;101794.06;5035203;28;20060;-61
2024/01/13 10:47:14;;;;;;;7.07;5.30;;;;;;;17.83;40.09;101783.34;5032504;28;20046;-61
2024/01/13 10:49:47;;;;;;;8.05;5.72;;;;;;;17.83;40.00;101785.16;5044514;28;20045;-61
2024/01/13 10:52:20;;;;;;;6.80;5.43;;;;;;;17.85;40.06;101775.19;5036067;28;20054;-61
2024/01/13 10:54:48;;;;;;;7.88;5.45;;;;;;;17.85;40.11;101783.22;5037672;28;20053;-61
2024/01/13 10:57:17;;;;;;;6.53;5.47;;;;;;;17.85;40.15;101772.50;5035724;28;20056;-61
2024/01/13 10:59:47;;;;;;;7.10;5.93;;;;;;;17.85;40.06;101780.53;5038726;28;20048;-61
2024/01/13 11:02:16;;;;;;;7.07;5.53;;;;;;;17.84;39.93;101768.13;5038633;28;20038;-61
2024/01/13 11:04:46;;;;;;;7.72;5.50;;;;;;;17.84;40.09;101768.13;5043276;28;20103;-60
2024/01/13 11:07:13;;;;;;;6.15;4.93;;;;;;;17.84;40.15;101766.31;5035227;28;20483;-60
2024/01/13 11:09:42;;;;;;;7.55;5.25;;;;;;;17.84;40.07;101763.63;5035506;28;20489;-60
2024/01/13 11:12:43;;;;;;;7.55;5.90;;;;;;;17.84;40.06;101754.72;5033679;28;20041;-60
2024/01/13 11:15:29;;;;;;;9.23;6.18;;;;;;;17.84;40.02;101752.03;5025911;28;20061;-60
2024/01/13 11:18:01;;;;;;;7.53;6.47;;;;;;;17.83;40.02;101748.50;5035423;28;20049;-60
2024/01/13 11:20:28;;;;;;;11.50;7.75;;;;;;;17.85;39.98;101754.63;5038815;28;20418;-61
2024/01/13 11:22:58;;;;;;;7.63;6.15;;;;;;;17.85;40.13;101751.94;5035339;28;20049;-60
2024/01/13 11:25:28;;;;;;;7.28;5.13;;;;;;;17.87;40.11;101738.47;5034822;28;20076;-60
2024/01/13 11:28:02;;;;;;;7.78;6.35;;;;;;;17.86;40.21;101745.63;5034558;28;20053;-66
2024/01/13 11:30:35;;;;;;;8.20;6.53;;;;;;;17.86;40.36;101742.94;5037137;28;20523;-60
2024/01/13 11:33:13;;;;;;;8.43;6.28;;;;;;;17.88;40.58;101732.13;5042296;28;20470;-61